Time;durP1;ratioP1;P1;durP2;ratioP2;P2;SDS_P1;SDS_P2;PMS_P1;PMS_P2;Temp;Humidity;BMP_temperature;BMP_pressure;BME280_temperature;BME280_humidity;BME280_pressure;Samples;Min_cycle;Max_cycle;Signal;HPM_P1;HPM_P2
2021/10/07 00:00:16;;;;;;;128.17;120.43;;;;;;;;;;5046171;28;20452;-71
2021/10/07 00:02:43;;;;;;;130.57;122.67;;;;;;;;;;5035540;28;20943;-71
2021/10/07 00:05:12;;;;;;;129.53;121.83;;;;;;;;;;5053672;28;20458;-71
2021/10/07 00:07:39;;;;;;;125.27;117.77;;;;;;;;;;5054504;28;20471;-74
2021/10/07 00:10:07;;;;;;;127.90;120.30;;;;;;;;;;5054467;28;20448;-67
2021/10/07 00:12:35;;;;;;;130.50;122.70;;;;;;;;;;5055178;28;20462;-70
2021/10/07 00:15:02;;;;;;;129.17;121.40;;;;;;;;;;5054304;28;20459;-72
2021/10/07 00:17:30;;;;;;;124.60;117.13;;;;;;;;;;5055072;28;20951;-71
2021/10/07 00:19:57;;;;;;;125.50;118.20;;;;;;;;;;5055062;28;20472;-67
2021/10/07 00:22:25;;;;;;;127.97;120.40;;;;;;;;;;5061197;28;20451;-77
2021/10/07 00:24:52;;;;;;;128.37;120.80;;;;;;;;;;5061015;28;20448;-79
2021/10/07 00:27:19;;;;;;;126.10;118.80;;;;;;;;;;5060585;28;20494;-73
2021/10/07 00:29:49;;;;;;;122.60;115.53;;;;;;;;;;5063707;28;20955;-79
2021/10/07 00:32:19;;;;;;;124.13;117.13;;;;;;;;;;5061037;28;20981;-79
2021/10/07 00:35:00;;;;;;;118.87;112.00;;;;;;;;;;5048795;28;20449;-74
2021/10/07 00:40:10;;;;;;;115.17;108.13;;;;;;;;;;5053763;28;20432;-77
2021/10/07 00:42:37;;;;;;;121.37;114.47;;;;;;;;;;5054394;28;20444;-68
2021/10/07 00:45:05;;;;;;;118.60;111.67;;;;;;;;;;5055840;28;20447;-72
2021/10/07 00:47:32;;;;;;;119.57;112.77;;;;;;;;;;5055302;28;20482;-72
2021/10/07 00:49:59;;;;;;;118.47;111.57;;;;;;;;;;5052235;28;20475;-77
2021/10/07 00:52:26;;;;;;;122.60;115.70;;;;;;;;;;5045626;28;20532;-76
2021/10/07 00:54:56;;;;;;;119.60;112.80;;;;;;;;;;5057185;28;20455;-75
2021/10/07 00:57:23;;;;;;;117.40;110.80;;;;;;;;;;5062942;28;20466;-75
2021/10/07 00:59:51;;;;;;;116.90;110.27;;;;;;;;;;5060611;28;20480;-78
2021/10/07 01:02:19;;;;;;;114.50;107.93;;;;;;;;;;5053977;28;20463;-80
2021/10/07 01:04:46;;;;;;;116.03;109.13;;;;;;;;;;5041407;28;20452;-74
2021/10/07 01:07:16;;;;;;;116.40;109.93;;;;;;;;;;5050518;28;20483;-72
2021/10/07 01:09:43;;;;;;;115.03;108.53;;;;;;;;;;5052620;28;20559;-70
2021/10/07 01:12:11;;;;;;;118.47;111.87;;;;;;;;;;5052960;28;20454;-72
2021/10/07 01:14:44;;;;;;;118.17;111.57;;;;;;;;;;5053678;28;20452;-74
2021/10/07 01:17:11;;;;;;;119.03;112.53;;;;;;;;;;5037270;28;20455;-71
2021/10/07 01:19:40;;;;;;;117.13;110.60;;;;;;;;;;5039483;28;20469;-73
2021/10/07 01:22:08;;;;;;;110.60;104.40;;;;;;;;;;5045592;28;20475;-74
2021/10/07 01:24:35;;;;;;;113.40;107.03;;;;;;;;;;5060463;28;20826;-73
2021/10/07 01:27:02;;;;;;;114.20;107.90;;;;;;;;;;5060945;28;21002;-69
2021/10/07 01:29:29;;;;;;;114.63;108.23;;;;;;;;;;5056754;28;20464;-74
2021/10/07 01:31:57;;;;;;;117.00;110.63;;;;;;;;;;5057238;28;20445;-67
2021/10/07 01:34:24;;;;;;;113.80;107.40;;;;;;;;;;5055784;28;20961;-69
2021/10/07 01:36:53;;;;;;;114.13;107.73;;;;;;;;;;5061652;28;20440;-66
2021/10/07 01:39:20;;;;;;;114.27;107.83;;;;;;;;;;5060229;28;20468;-69
2021/10/07 01:41:47;;;;;;;112.97;106.73;;;;;;;;;;5062354;28;20946;-66
2021/10/07 01:44:15;;;;;;;112.87;106.67;;;;;;;;;;5066081;28;20465;-66
2021/10/07 01:46:42;;;;;;;112.70;105.93;;;;;;;;;;5066001;28;20447;-70
2021/10/07 01:49:09;;;;;;;111.43;105.33;;;;;;;;;;5065819;28;20475;-67
2021/10/07 01:51:36;;;;;;;116.07;109.60;;;;;;;;;;5056049;28;20456;-66
2021/10/07 01:54:06;;;;;;;112.57;106.30;;;;;;;;;;5038367;28;20449;-67
2021/10/07 01:56:33;;;;;;;109.33;103.20;;;;;;;;;;5036083;28;20461;-65
2021/10/07 01:59:00;;;;;;;105.93;99.60;;;;;;;;;;5053586;28;20483;-68
2021/10/07 02:01:27;;;;;;;105.67;99.57;;;;;;;;;;5043976;28;20471;-75
2021/10/07 02:03:54;;;;;;;109.93;103.73;;;;;;;;;;5045835;28;20445;-69
2021/10/07 02:06:21;;;;;;;108.23;102.13;;;;;;;;;;5034289;28;20449;-66
2021/10/07 02:08:48;;;;;;;107.67;101.60;;;;;;;;;;5053419;28;20488;-66
2021/10/07 02:11:17;;;;;;;106.63;100.63;;;;;;;;;;5052288;28;20943;-69
2021/10/07 02:13:44;;;;;;;109.30;103.20;;;;;;;;;;5047360;28;20453;-67
2021/10/07 02:16:11;;;;;;;105.90;99.60;;;;;;;;;;5044564;28;20448;-67
2021/10/07 02:18:38;;;;;;;107.23;101.33;;;;;;;;;;5052872;28;20463;-71
2021/10/07 02:21:05;;;;;;;109.23;103.13;;;;;;;;;;5051911;28;20444;-69
2021/10/07 02:23:32;;;;;;;112.63;106.17;;;;;;;;;;5045894;28;20447;-68
2021/10/07 02:26:00;;;;;;;109.77;103.77;;;;;;;;;;5051925;28;20970;-71
2021/10/07 02:28:28;;;;;;;112.37;106.27;;;;;;;;;;5052957;28;20491;-64
2021/10/07 02:30:57;;;;;;;113.23;106.53;;;;;;;;;;5052427;28;20771;-65
2021/10/07 02:33:25;;;;;;;102.10;96.30;;;;;;;;;;5049136;28;20540;-64
2021/10/07 02:35:52;;;;;;;111.60;105.50;;;;;;;;;;5033882;28;20448;-67
2021/10/07 02:38:19;;;;;;;110.37;104.23;;;;;;;;;;5052157;28;20463;-71
2021/10/07 02:40:46;;;;;;;107.43;101.50;;;;;;;;;;5052613;28;20459;-70
2021/10/07 02:43:13;;;;;;;108.00;102.00;;;;;;;;;;5051975;28;20447;-65
2021/10/07 02:45:41;;;;;;;109.27;103.10;;;;;;;;;;5051595;28;20451;-68
2021/10/07 02:48:09;;;;;;;118.00;111.70;;;;;;;;;;5052345;28;20987;-65
2021/10/07 02:50:36;;;;;;;105.80;100.00;;;;;;;;;;5052381;28;20957;-65
2021/10/07 02:53:03;;;;;;;105.47;99.77;;;;;;;;;;5052536;28;20458;-66
2021/10/07 02:55:30;;;;;;;98.50;92.70;;;;;;;;;;5032710;28;20460;-70
2021/10/07 02:57:57;;;;;;;105.63;99.83;;;;;;;;;;5048655;28;20470;-64
2021/10/07 03:00:24;;;;;;;103.33;97.47;;;;;;;;;;5052706;28;20442;-68
2021/10/07 03:02:53;;;;;;;97.80;92.10;;;;;;;;;;5052417;28;20447;-66
2021/10/07 03:05:20;;;;;;;101.63;95.93;;;;;;;;;;5051104;28;20448;-73
2021/10/07 03:07:47;;;;;;;102.63;96.83;;;;;;;;;;5051191;28;20998;-68
2021/10/07 03:10:15;;;;;;;100.27;94.47;;;;;;;;;;5051794;28;20462;-65
2021/10/07 03:12:42;;;;;;;98.30;92.70;;;;;;;;;;5051828;28;20456;-69
2021/10/07 03:15:10;;;;;;;96.40;90.47;;;;;;;;;;5055621;28;20451;-67
2021/10/07 03:17:37;;;;;;;98.30;92.50;;;;;;;;;;5056150;28;20439;-72
2021/10/07 03:20:07;;;;;;;95.90;90.27;;;;;;;;;;5054797;28;20471;-69
2021/10/07 03:22:34;;;;;;;99.27;93.53;;;;;;;;;;5056190;28;20447;-65
2021/10/07 03:25:01;;;;;;;99.20;93.50;;;;;;;;;;5055716;28;20452;-66
2021/10/07 03:27:28;;;;;;;99.53;93.73;;;;;;;;;;5054829;28;20487;-65
2021/10/07 03:29:55;;;;;;;102.17;96.27;;;;;;;;;;5055834;28;20970;-65
2021/10/07 03:32:22;;;;;;;101.97;95.17;;;;;;;;;;5050200;28;20476;-67
2021/10/07 03:34:50;;;;;;;100.70;94.90;;;;;;;;;;5054651;28;20454;-67
2021/10/07 03:37:18;;;;;;;102.43;96.47;;;;;;;;;;5055737;28;20455;-66
2021/10/07 03:39:45;;;;;;;104.67;98.57;;;;;;;;;;5055077;28;20483;-69
2021/10/07 03:42:12;;;;;;;103.97;97.93;;;;;;;;;;5056059;28;20807;-69
2021/10/07 03:44:41;;;;;;;100.80;94.80;;;;;;;;;;5053594;28;20452;-68
2021/10/07 03:47:08;;;;;;;108.50;102.33;;;;;;;;;;5055583;28;20455;-67
2021/10/07 03:49:35;;;;;;;102.37;96.57;;;;;;;;;;5040022;28;20475;-68
2021/10/07 03:52:02;;;;;;;100.60;94.73;;;;;;;;;;5035699;28;20452;-65
2021/10/07 03:54:31;;;;;;;97.23;91.33;;;;;;;;;;5053657;28;20810;-69
2021/10/07 03:56:58;;;;;;;96.60;90.70;;;;;;;;;;5054853;28;20456;-71
2021/10/07 03:59:25;;;;;;;95.73;90.00;;;;;;;;;;5054826;28;20472;-65
2021/10/07 04:01:52;;;;;;;104.97;98.60;;;;;;;;;;5046467;28;20476;-68
2021/10/07 04:04:19;;;;;;;96.03;90.03;;;;;;;;;;5046517;28;20448;-69
2021/10/07 04:06:46;;;;;;;99.00;92.60;;;;;;;;;;5055077;28;21013;-67
2021/10/07 04:09:13;;;;;;;95.67;89.70;;;;;;;;;;5052641;28;20491;-64
2021/10/07 04:11:42;;;;;;;95.73;89.83;;;;;;;;;;5047420;28;20452;-64
2021/10/07 04:14:09;;;;;;;90.03;84.33;;;;;;;;;;5042460;28;20444;-64
2021/10/07 04:16:36;;;;;;;98.70;92.70;;;;;;;;;;5054999;28;20455;-66
2021/10/07 04:19:03;;;;;;;97.83;91.73;;;;;;;;;;5048071;28;20803;-65
2021/10/07 04:21:30;;;;;;;95.17;89.17;;;;;;;;;;5039605;28;20451;-66
2021/10/07 04:23:57;;;;;;;99.63;93.93;;;;;;;;;;5045760;28;20453;-65
2021/10/07 04:26:27;;;;;;;92.07;86.07;;;;;;;;;;5035065;28;20928;-65
2021/10/07 04:28:55;;;;;;;99.77;93.87;;;;;;;;;;5046256;28;20487;-64
2021/10/07 04:31:22;;;;;;;92.00;86.00;;;;;;;;;;5054415;28;20447;-63
2021/10/07 04:33:49;;;;;;;95.67;89.40;;;;;;;;;;5053926;28;20448;-65
2021/10/07 04:36:16;;;;;;;94.77;88.60;;;;;;;;;;5053551;28;20451;-63
2021/10/07 04:38:43;;;;;;;100.07;93.70;;;;;;;;;;5044440;28;20830;-64
2021/10/07 04:41:11;;;;;;;95.37;89.10;;;;;;;;;;5054599;28;20454;-64
2021/10/07 04:43:39;;;;;;;95.50;89.60;;;;;;;;;;5050849;28;20450;-64
2021/10/07 04:46:07;;;;;;;93.43;87.40;;;;;;;;;;5034119;28;20449;-64
2021/10/07 04:48:34;;;;;;;98.30;92.40;;;;;;;;;;5041462;28;20487;-64
2021/10/07 04:51:01;;;;;;;96.53;90.20;;;;;;;;;;5054562;28;20466;-65
2021/10/07 04:53:28;;;;;;;103.80;97.23;;;;;;;;;;5054235;28;20478;-64
2021/10/07 04:55:55;;;;;;;97.07;90.67;;;;;;;;;;5053999;28;20463;-65
2021/10/07 04:58:23;;;;;;;98.97;92.23;;;;;;;;;;5052308;28;20975;-64
2021/10/07 05:00:50;;;;;;;98.97;92.50;;;;;;;;;;5054176;28;20428;-64
2021/10/07 05:03:18;;;;;;;101.70;95.07;;;;;;;;;;5053874;28;20474;-67
2021/10/07 05:05:46;;;;;;;102.83;95.80;;;;;;;;;;5045044;28;20455;-66
2021/10/07 05:08:13;;;;;;;102.20;95.40;;;;;;;;;;5041295;28;20488;-65
2021/10/07 05:10:40;;;;;;;107.00;99.80;;;;;;;;;;5053011;28;20452;-66
2021/10/07 05:13:07;;;;;;;105.20;98.20;;;;;;;;;;5046270;28;20449;-66
2021/10/07 05:15:34;;;;;;;182.30;171.00;;;;;;;;;;5053257;28;20452;-65
2021/10/07 05:18:01;;;;;;;162.03;151.90;;;;;;;;;;5044471;28;20441;-65
2021/10/07 05:20:30;;;;;;;106.00;99.10;;;;;;;;;;5052456;28;20460;-65
2021/10/07 05:22:57;;;;;;;104.20;97.30;;;;;;;;;;5053008;28;20827;-68
2021/10/07 05:25:24;;;;;;;115.23;107.63;;;;;;;;;;5053228;28;20456;-66
2021/10/07 05:27:51;;;;;;;129.87;122.07;;;;;;;;;;5053750;28;20448;-66
2021/10/07 05:30:18;;;;;;;105.60;98.60;;;;;;;;;;5044864;28;20461;-67
2021/10/07 05:32:45;;;;;;;96.57;89.73;;;;;;;;;;5053135;28;20827;-66
2021/10/07 05:35:12;;;;;;;80.37;74.83;;;;;;;;;;5047002;28;20441;-67
2021/10/07 05:37:41;;;;;;;77.43;70.57;;;;;;;;;;5034692;28;20453;-66
2021/10/07 05:40:08;;;;;;;74.20;68.50;;;;;;;;;;5048548;28;20445;-65
2021/10/07 05:42:35;;;;;;;72.63;67.27;;;;;;;;;;5033499;28;20449;-66
2021/10/07 05:45:03;;;;;;;79.00;73.07;;;;;;;;;;5054282;28;20452;-66
2021/10/07 05:47:30;;;;;;;94.37;87.07;;;;;;;;;;5053970;28;20896;-67
2021/10/07 05:49:57;;;;;;;103.90;95.60;;;;;;;;;;5049722;28;20484;-68
2021/10/07 05:52:24;;;;;;;126.83;117.00;;;;;;;;;;5034979;28;20932;-68
2021/10/07 05:54:52;;;;;;;191.53;178.13;;;;;;;;;;5050056;28;20455;-68
2021/10/07 05:57:19;;;;;;;222.10;205.47;;;;;;;;;;5052007;28;20451;-68
2021/10/07 05:59:46;;;;;;;313.23;291.17;;;;;;;;;;5051814;28;20476;-68
2021/10/07 06:02:13;;;;;;;486.10;446.10;;;;;;;;;;5053174;28;20444;-67
2021/10/07 06:04:41;;;;;;;546.90;505.77;;;;;;;;;;5051711;28;20978;-71
2021/10/07 06:07:08;;;;;;;682.70;624.50;;;;;;;;;;5050504;28;20451;-69
2021/10/07 06:09:35;;;;;;;685.73;631.53;;;;;;;;;;5034529;28;20480;-71
2021/10/07 06:12:04;;;;;;;691.63;644.93;;;;;;;;;;5048163;28;20448;-70
2021/10/07 06:14:31;;;;;;;631.83;588.40;;;;;;;;;;5043940;28;20524;-70
2021/10/07 06:16:58;;;;;;;526.03;484.80;;;;;;;;;;5052215;28;20456;-70
2021/10/07 06:19:27;;;;;;;481.13;443.93;;;;;;;;;;5052174;28;21003;-70
2021/10/07 06:21:54;;;;;;;456.33;422.33;;;;;;;;;;5050437;28;20880;-70
2021/10/07 06:24:22;;;;;;;462.53;432.00;;;;;;;;;;5051168;28;20947;-70
2021/10/07 06:26:49;;;;;;;431.57;403.17;;;;;;;;;;5051825;28;20451;-70
2021/10/07 06:29:17;;;;;;;458.20;432.00;;;;;;;;;;5051731;28;20480;-70
2021/10/07 06:31:44;;;;;;;454.90;430.70;;;;;;;;;;5052178;28;20475;-70
2021/10/07 06:34:11;;;;;;;453.87;431.57;;;;;;;;;;5051194;28;20454;-72
2021/10/07 06:36:38;;;;;;;417.33;397.43;;;;;;;;;;5051554;28;20448;-70
2021/10/07 06:39:06;;;;;;;369.37;351.73;;;;;;;;;;5051962;28;20460;-71
2021/10/07 06:41:33;;;;;;;366.83;350.63;;;;;;;;;;5051957;28;20448;-70
2021/10/07 06:44:00;;;;;;;380.57;364.77;;;;;;;;;;5051361;28;20440;-70
2021/10/07 06:46:29;;;;;;;346.70;332.20;;;;;;;;;;5051592;28;20765;-70
2021/10/07 06:48:56;;;;;;;308.70;295.27;;;;;;;;;;5053002;28;20495;-70
2021/10/07 06:51:24;;;;;;;278.73;266.43;;;;;;;;;;5047558;28;20448;-70
2021/10/07 06:53:54;;;;;;;242.83;231.63;;;;;;;;;;5037522;28;20473;-70
2021/10/07 06:56:21;;;;;;;240.40;229.20;;;;;;;;;;5054100;28;20483;-70
2021/10/07 06:58:52;;;;;;;191.17;181.67;;;;;;;;;;5055562;28;20830;-70
2021/10/07 07:01:19;;;;;;;185.00;175.77;;;;;;;;;;5056433;28;20456;-70
2021/10/07 07:03:48;;;;;;;170.20;161.60;;;;;;;;;;5056018;28;20455;-70
2021/10/07 07:06:15;;;;;;;175.83;166.50;;;;;;;;;;5052956;28;20459;-70
2021/10/07 07:08:42;;;;;;;157.33;148.90;;;;;;;;;;5057341;28;20491;-72
2021/10/07 07:11:09;;;;;;;146.20;138.70;;;;;;;;;;5042319;28;20453;-69
2021/10/07 07:13:36;;;;;;;161.30;152.43;;;;;;;;;;5032871;28;20452;-68
2021/10/07 07:16:04;;;;;;;155.87;147.37;;;;;;;;;;5032458;28;20460;-67
2021/10/07 07:18:31;;;;;;;133.53;126.00;;;;;;;;;;5033887;28;20480;-70
2021/10/07 07:20:59;;;;;;;121.07;114.17;;;;;;;;;;5045949;28;20460;-73
2021/10/07 07:23:26;;;;;;;133.17;125.97;;;;;;;;;;5063159;28;20848;-72
2021/10/07 07:25:53;;;;;;;120.60;113.83;;;;;;;;;;5067647;28;20446;-74
2021/10/07 07:28:21;;;;;;;115.03;107.83;;;;;;;;;;5055100;28;20480;-73
2021/10/07 07:30:49;;;;;;;117.33;110.03;;;;;;;;;;5032128;28;20452;-74
2021/10/07 07:33:18;;;;;;;80.50;74.87;;;;;;;;;;5038698;28;20543;-73
2021/10/07 07:35:45;;;;;;;79.47;73.47;;;;;;;;;;5052499;28;20452;-72
2021/10/07 07:38:13;;;;;;;86.53;80.73;;;;;;;;;;5044019;28;20468;-71
2021/10/07 07:40:40;;;;;;;84.53;79.17;;;;;;;;;;5031497;28;20940;-71
2021/10/07 07:43:07;;;;;;;74.17;69.10;;;;;;;;;;5032575;28;20460;-71
2021/10/07 07:45:34;;;;;;;67.67;63.60;;;;;;;;;;5031251;28;20445;-71
2021/10/07 07:48:02;;;;;;;66.30;61.73;;;;;;;;;;5034149;28;20444;-71
2021/10/07 07:50:30;;;;;;;58.17;54.10;;;;;;;;;;5053775;28;20852;-71
2021/10/07 07:52:58;;;;;;;68.33;63.93;;;;;;;;;;5049371;28;20468;-73
2021/10/07 07:55:26;;;;;;;52.47;48.97;;;;;;;;;;5042781;28;20479;-73
2021/10/07 07:57:53;;;;;;;54.23;50.73;;;;;;;;;;5031243;28;20451;-71
2021/10/07 08:00:21;;;;;;;52.47;48.87;;;;;;;;;;5042042;28;20810;-73
2021/10/07 08:02:48;;;;;;;49.73;45.90;;;;;;;;;;5054757;28;20444;-73
2021/10/07 08:05:15;;;;;;;47.90;44.80;;;;;;;;;;5053563;28;20522;-72
2021/10/07 08:07:42;;;;;;;48.17;44.87;;;;;;;;;;5054564;28;20535;-72
2021/10/07 08:10:11;;;;;;;48.23;44.73;;;;;;;;;;5053202;28;20822;-72
2021/10/07 08:12:40;;;;;;;47.20;43.73;;;;;;;;;;5054391;28;20455;-72
2021/10/07 08:15:09;;;;;;;46.30;43.13;;;;;;;;;;5054044;28;20452;-72
2021/10/07 08:17:37;;;;;;;42.53;39.67;;;;;;;;;;5054629;28;20458;-72
2021/10/07 08:20:05;;;;;;;44.53;41.60;;;;;;;;;;5050797;28;20541;-72
2021/10/07 08:22:32;;;;;;;42.80;40.13;;;;;;;;;;5053837;28;20458;-71
2021/10/07 08:24:59;;;;;;;44.10;41.30;;;;;;;;;;5053247;28;20799;-71
2021/10/07 08:27:27;;;;;;;41.50;38.70;;;;;;;;;;5054210;28;20454;-72
2021/10/07 08:29:55;;;;;;;40.50;37.90;;;;;;;;;;5053226;28;20494;-72
2021/10/07 08:32:22;;;;;;;45.23;42.30;;;;;;;;;;5054011;28;20475;-72
2021/10/07 08:34:50;;;;;;;46.43;43.43;;;;;;;;;;5047185;28;20449;-72
2021/10/07 08:37:17;;;;;;;44.10;40.90;;;;;;;;;;5036985;28;20448;-71
2021/10/07 08:39:44;;;;;;;43.50;40.90;;;;;;;;;;5052662;28;20826;-71
2021/10/07 08:42:11;;;;;;;40.23;37.83;;;;;;;;;;5043525;28;20455;-71
2021/10/07 08:44:38;;;;;;;45.80;43.00;;;;;;;;;;5034915;28;20449;-71
2021/10/07 08:47:06;;;;;;;40.87;38.37;;;;;;;;;;5033653;28;20814;-71
2021/10/07 08:49:38;;;;;;;42.80;40.30;;;;;;;;;;5047537;28;20480;-71
2021/10/07 08:52:05;;;;;;;38.07;35.77;;;;;;;;;;5033645;28;20437;-71
2021/10/07 08:54:34;;;;;;;41.33;38.73;;;;;;;;;;5048328;28;20479;-71
2021/10/07 08:57:01;;;;;;;41.47;39.00;;;;;;;;;;5053483;28;20452;-71
2021/10/07 08:59:28;;;;;;;38.43;36.10;;;;;;;;;;5052820;28;20882;-71
2021/10/07 09:01:57;;;;;;;39.93;37.33;;;;;;;;;;5053899;28;20444;-71
2021/10/07 09:04:26;;;;;;;39.03;36.63;;;;;;;;;;5052366;28;20839;-71
2021/10/07 09:06:55;;;;;;;39.17;36.63;;;;;;;;;;5051732;28;20475;-71
2021/10/07 09:09:22;;;;;;;38.67;36.13;;;;;;;;;;5052173;28;20484;-71
2021/10/07 09:11:52;;;;;;;41.13;38.73;;;;;;;;;;5052783;28;20452;-71
2021/10/07 09:14:23;;;;;;;40.60;38.10;;;;;;;;;;5052733;28;20455;-71
2021/10/07 09:16:51;;;;;;;37.63;35.43;;;;;;;;;;5052138;28;20444;-71
2021/10/07 09:19:19;;;;;;;41.80;39.20;;;;;;;;;;5052919;28;20464;-71
2021/10/07 09:21:48;;;;;;;37.23;34.93;;;;;;;;;;5053246;28;20458;-71
2021/10/07 09:24:29;;;;;;;34.33;32.33;;;;;;;;;;5052713;28;20834;-69
2021/10/07 09:26:59;;;;;;;33.67;31.77;;;;;;;;;;5048219;28;20452;-69
2021/10/07 09:29:34;;;;;;;36.07;34.00;;;;;;;;;;5050632;28;20575;-69
2021/10/07 09:32:01;;;;;;;34.90;32.80;;;;;;;;;;5048856;28;20456;-69
2021/10/07 09:34:43;;;;;;;37.53;35.33;;;;;;;;;;5036378;28;20464;-69
2021/10/07 09:37:22;;;;;;;35.20;33.10;;;;;;;;;;5050358;28;20457;-69
2021/10/07 09:39:49;;;;;;;33.70;31.77;;;;;;;;;;5051175;28;20474;-63
2021/10/07 09:42:21;;;;;;;31.97;29.87;;;;;;;;;;5054155;28;20452;-69
2021/10/07 09:45:16;;;;;;;34.90;32.80;;;;;;;;;;5044826;28;20456;-69
2021/10/07 09:47:44;;;;;;;31.63;29.77;;;;;;;;;;5010298;28;20468;-69
2021/10/07 09:50:16;;;;;;;32.93;30.90;;;;;;;;;;5047942;28;20484;-70
2021/10/07 09:52:45;;;;;;;31.87;29.97;;;;;;;;;;5064619;28;20451;-70
2021/10/07 09:55:13;;;;;;;31.13;29.10;;;;;;;;;;5068012;28;20932;-70
2021/10/07 09:57:51;;;;;;;32.47;30.20;;;;;;;;;;5041844;28;20455;-71
2021/10/07 10:00:18;;;;;;;30.33;28.23;;;;;;;;;;5053319;28;22078;-69
2021/10/07 10:02:45;;;;;;;31.17;29.20;;;;;;;;;;5058675;28;20440;-68
2021/10/07 10:05:13;;;;;;;30.27;28.37;;;;;;;;;;5047303;28;20460;-67
2021/10/07 10:07:41;;;;;;;31.00;28.97;;;;;;;;;;5044533;28;20546;-68
2021/10/07 10:10:10;;;;;;;30.07;28.27;;;;;;;;;;5052767;28;20495;-69
2021/10/07 10:12:37;;;;;;;29.57;27.73;;;;;;;;;;5046000;28;20458;-70
2021/10/07 10:15:05;;;;;;;28.90;27.10;;;;;;;;;;5063159;28;20458;-69
2021/10/07 10:17:33;;;;;;;28.20;26.40;;;;;;;;;;5060835;28;20459;-69
2021/10/07 10:20:00;;;;;;;30.17;28.37;;;;;;;;;;5064975;28;20470;-69
2021/10/07 10:22:28;;;;;;;29.07;27.17;;;;;;;;;;5046594;28;20455;-71
2021/10/07 10:24:55;;;;;;;28.30;26.60;;;;;;;;;;5057817;28;20455;-70
2021/10/07 10:27:24;;;;;;;29.10;27.40;;;;;;;;;;5068520;28;20507;-70
2021/10/07 10:29:51;;;;;;;28.70;27.00;;;;;;;;;;5065321;28;20494;-70
2021/10/07 10:32:20;;;;;;;27.80;26.10;;;;;;;;;;5053661;28;20955;-73
2021/10/07 10:34:48;;;;;;;26.27;24.60;;;;;;;;;;5046273;28;20449;-70
2021/10/07 10:37:15;;;;;;;26.23;24.63;;;;;;;;;;5051047;28;20448;-70
2021/10/07 10:39:45;;;;;;;27.80;26.20;;;;;;;;;;5045264;28;20882;-69
2021/10/07 10:42:22;;;;;;;25.80;24.20;;;;;;;;;;5053512;28;20549;-69
2021/10/07 10:44:51;;;;;;;27.30;25.70;;;;;;;;;;5052237;28;20444;-70
2021/10/07 10:47:28;;;;;;;25.83;24.27;;;;;;;;;;5050688;28;20459;-71
2021/10/07 10:50:00;;;;;;;26.93;25.53;;;;;;;;;;5050090;28;20555;-72
2021/10/07 10:52:28;;;;;;;26.83;25.20;;;;;;;;;;5046857;28;20464;-71
2021/10/07 10:54:56;;;;;;;26.80;25.20;;;;;;;;;;5051945;28;20454;-71
2021/10/07 10:57:28;;;;;;;27.33;25.83;;;;;;;;;;5041573;28;20443;-70
2021/10/07 11:00:06;;;;;;;26.70;25.20;;;;;;;;;;5041487;28;20479;-71
2021/10/07 11:02:33;;;;;;;26.30;24.60;;;;;;;;;;5048472;28;20795;-69
2021/10/07 11:05:10;;;;;;;25.97;24.57;;;;;;;;;;5042137;28;20445;-68
2021/10/07 11:07:37;;;;;;;26.07;24.60;;;;;;;;;;5049671;28;20985;-70
2021/10/07 11:10:06;;;;;;;26.10;24.60;;;;;;;;;;5045106;28;20482;-72
2021/10/07 11:12:35;;;;;;;24.50;23.10;;;;;;;;;;5052335;28;20551;-70
2021/10/07 11:15:02;;;;;;;24.37;22.97;;;;;;;;;;5050917;28;20822;-70
2021/10/07 11:17:33;;;;;;;25.47;23.40;;;;;;;;;;5046146;28;20456;-70
2021/10/07 11:20:00;;;;;;;23.70;22.30;;;;;;;;;;5046788;28;20480;-70
2021/10/07 11:22:28;;;;;;;24.23;22.53;;;;;;;;;;5045861;28;20444;-71
2021/10/07 11:24:56;;;;;;;24.77;23.07;;;;;;;;;;5051517;28;20455;-71
2021/10/07 11:27:31;;;;;;;24.93;23.33;;;;;;;;;;5052261;28;20448;-70
2021/10/07 11:29:58;;;;;;;26.97;25.10;;;;;;;;;;5051492;28;20530;-70
2021/10/07 11:32:26;;;;;;;26.80;25.30;;;;;;;;;;5051271;28;20452;-69
2021/10/07 11:35:05;;;;;;;26.30;24.60;;;;;;;;;;5047104;28;20448;-69
2021/10/07 11:37:56;;;;;;;24.80;23.30;;;;;;;;;;5054701;28;20550;-69
2021/10/07 11:40:25;;;;;;;25.97;24.30;;;;;;;;;;5055628;28;20443;-74
2021/10/07 11:42:52;;;;;;;26.50;24.70;;;;;;;;;;5053758;28;20452;-72
2021/10/07 11:45:20;;;;;;;25.50;23.70;;;;;;;;;;5056796;28;20444;-73
2021/10/07 11:47:47;;;;;;;24.93;23.53;;;;;;;;;;5044826;28;20448;-69
2021/10/07 11:50:16;;;;;;;24.30;23.00;;;;;;;;;;5036479;28;20491;-73
2021/10/07 11:52:43;;;;;;;24.20;22.70;;;;;;;;;;5052035;28;20467;-72
2021/10/07 11:55:12;;;;;;;24.07;22.67;;;;;;;;;;5054451;28;20456;-72
2021/10/07 11:57:46;;;;;;;23.47;21.80;;;;;;;;;;5053478;28;20556;-73
2021/10/07 12:00:14;;;;;;;22.83;21.63;;;;;;;;;;5054074;28;20927;-73
2021/10/07 12:02:41;;;;;;;23.60;22.30;;;;;;;;;;5053633;28;20455;-72
2021/10/07 12:05:19;;;;;;;23.37;22.17;;;;;;;;;;5054314;28;20443;-71
2021/10/07 12:08:01;;;;;;;23.47;22.17;;;;;;;;;;5053883;28;20455;-71
2021/10/07 12:10:38;;;;;;;23.50;22.30;;;;;;;;;;5047224;28;20851;-72
2021/10/07 12:13:06;;;;;;;23.33;22.03;;;;;;;;;;5053620;28;20787;-71
2021/10/07 12:15:33;;;;;;;21.87;20.80;;;;;;;;;;5053908;28;20456;-71
2021/10/07 12:18:00;;;;;;;22.90;21.70;;;;;;;;;;5053742;28;20448;-72
2021/10/07 12:20:29;;;;;;;23.53;22.43;;;;;;;;;;5049856;28;20441;-72
2021/10/07 12:23:00;;;;;;;23.73;22.43;;;;;;;;;;5033624;28;20449;-71
2021/10/07 12:25:27;;;;;;;23.43;22.23;;;;;;;;;;5038272;28;20448;-71
2021/10/07 12:28:01;;;;;;;23.00;21.90;;;;;;;;;;5053904;28;20447;-72
2021/10/07 12:30:28;;;;;;;23.10;22.00;;;;;;;;;;5036086;28;20868;-72
2021/10/07 12:33:10;;;;;;;23.43;22.23;;;;;;;;;;5044178;28;20493;-71
2021/10/07 12:35:38;;;;;;;21.90;20.63;;;;;;;;;;5053624;28;20459;-71
2021/10/07 12:38:05;;;;;;;22.10;21.00;;;;;;;;;;5053556;28;20471;-71
2021/10/07 12:40:35;;;;;;;22.43;21.13;;;;;;;;;;5052225;28;20457;-72
2021/10/07 12:43:13;;;;;;;21.63;20.53;;;;;;;;;;5050472;28;20547;-71
2021/10/07 12:46:00;;;;;;;22.70;21.47;;;;;;;;;;5052386;28;20946;-71
2021/10/07 12:48:27;;;;;;;22.30;21.10;;;;;;;;;;5051380;28;20475;-71
2021/10/07 12:50:55;;;;;;;22.63;21.47;;;;;;;;;;5052703;28;20484;-71
2021/10/07 12:53:22;;;;;;;24.20;22.90;;;;;;;;;;5051359;28;20459;-71
2021/10/07 12:55:50;;;;;;;24.67;23.37;;;;;;;;;;5051737;28;20447;-72
2021/10/07 12:58:26;;;;;;;24.20;23.00;;;;;;;;;;5053206;28;20472;-72
2021/10/07 13:01:10;;;;;;;23.30;22.10;;;;;;;;;;5051342;28;20439;-71
2021/10/07 13:03:38;;;;;;;24.97;23.67;;;;;;;;;;5053272;28;20786;-71
2021/10/07 13:06:08;;;;;;;24.50;23.27;;;;;;;;;;5052517;28;20455;-71
2021/10/07 13:08:35;;;;;;;25.17;23.87;;;;;;;;;;5053332;28;20545;-71
2021/10/07 13:11:02;;;;;;;25.30;24.00;;;;;;;;;;5050844;28;20480;-71
2021/10/07 13:13:30;;;;;;;25.43;24.13;;;;;;;;;;5049920;28;20947;-71
2021/10/07 13:15:57;;;;;;;26.17;24.67;;;;;;;;;;5052881;28;20566;-72
2021/10/07 13:18:24;;;;;;;24.10;22.90;;;;;;;;;;5052940;28;20471;-71
2021/10/07 13:20:52;;;;;;;23.03;21.80;;;;;;;;;;5053114;28;20455;-70
2021/10/07 13:23:20;;;;;;;24.70;23.50;;;;;;;;;;5052773;28;20513;-70
2021/10/07 13:25:47;;;;;;;23.63;22.53;;;;;;;;;;5047348;28;20854;-71
2021/10/07 13:28:14;;;;;;;24.03;22.73;;;;;;;;;;5047422;28;20472;-71
2021/10/07 13:30:42;;;;;;;24.00;22.80;;;;;;;;;;5033440;28;20543;-75
2021/10/07 13:33:09;;;;;;;25.40;24.00;;;;;;;;;;5039363;28;20439;-75
2021/10/07 13:35:36;;;;;;;25.00;23.70;;;;;;;;;;5040588;28;20821;-74
2021/10/07 13:38:04;;;;;;;24.50;23.30;;;;;;;;;;5040628;28;20927;-74
2021/10/07 13:40:35;;;;;;;25.00;23.77;;;;;;;;;;5053411;28;20816;-74
2021/10/07 13:43:02;;;;;;;25.67;24.17;;;;;;;;;;5052385;28;20986;-74
2021/10/07 13:45:30;;;;;;;25.53;24.30;;;;;;;;;;5033050;28;20792;-74
2021/10/07 13:48:01;;;;;;;25.77;24.47;;;;;;;;;;5048220;28;20456;-74
2021/10/07 13:50:28;;;;;;;25.20;23.90;;;;;;;;;;5051340;28;20655;-73
2021/10/07 13:52:56;;;;;;;25.00;23.60;;;;;;;;;;5052226;28;20973;-73
2021/10/07 13:55:23;;;;;;;26.73;25.40;;;;;;;;;;5052081;28;20455;-74
2021/10/07 13:57:54;;;;;;;25.50;24.23;;;;;;;;;;5052478;28;20848;-73
2021/10/07 14:00:22;;;;;;;26.00;24.70;;;;;;;;;;5047167;28;20537;-73
2021/10/07 14:02:49;;;;;;;25.83;24.53;;;;;;;;;;5066122;28;20451;-70
2021/10/07 14:05:18;;;;;;;25.93;24.43;;;;;;;;;;5055484;28;20973;-70
2021/10/07 14:07:45;;;;;;;25.80;24.50;;;;;;;;;;5052020;28;20963;-74
2021/10/07 14:10:12;;;;;;;25.57;24.27;;;;;;;;;;5051485;28;20448;-73
2021/10/07 14:12:39;;;;;;;26.30;24.90;;;;;;;;;;5051923;28;20488;-73
2021/10/07 14:15:08;;;;;;;23.40;22.20;;;;;;;;;;5049806;28;20936;-72
2021/10/07 14:17:35;;;;;;;26.33;24.97;;;;;;;;;;5075247;22;20515;-69